createdAt,value
2023-03-06T00:00:34.841Z,7.53
2023-03-06T00:04:51.066Z,6.50
2023-03-06T00:09:08.097Z,7.57
2023-03-06T00:13:24.528Z,7.50
2023-03-06T00:17:41.300Z,7.72
2023-03-06T00:21:57.633Z,7.30
2023-03-06T00:26:13.893Z,7.65
2023-03-06T00:30:30.115Z,6.40
2023-03-06T00:34:49.118Z,6.18
2023-03-06T00:39:06.162Z,6.93
2023-03-06T00:43:22.334Z,6.55
2023-03-06T00:47:38.634Z,7.37
2023-03-06T00:51:54.747Z,6.03
2023-03-06T00:56:10.934Z,6.50
2023-03-06T01:00:27.117Z,6.68
2023-03-06T01:04:43.388Z,7.03
2023-03-06T01:08:59.535Z,6.60
2023-03-06T01:13:15.766Z,5.90
2023-03-06T01:17:31.966Z,5.95
2023-03-06T01:21:48.237Z,6.35
2023-03-06T01:26:05.015Z,5.07
2023-03-06T01:30:21.709Z,5.57
2023-03-06T01:34:37.898Z,5.85
2023-03-06T01:38:54.107Z,6.50
2023-03-06T01:43:34.502Z,6.82
2023-03-06T01:47:50.656Z,6.45
2023-03-06T01:52:19.151Z,6.62
2023-03-06T01:56:35.736Z,6.37
2023-03-06T02:00:51.973Z,6.60
2023-03-06T02:05:08.998Z,6.10
2023-03-06T02:09:29.993Z,6.07
2023-03-06T02:13:46.906Z,6.30
2023-03-06T02:18:03.061Z,6.65
2023-03-06T02:22:20.195Z,5.97
2023-03-06T02:26:37.958Z,6.43
2023-03-06T02:30:56.298Z,6.57
2023-03-06T02:35:25.552Z,6.30
2023-03-06T02:39:48.305Z,6.50
2023-03-06T02:44:04.740Z,5.57
2023-03-06T02:48:21.369Z,6.47
2023-03-06T02:52:37.634Z,6.62
2023-03-06T02:56:53.773Z,6.70
2023-03-06T03:01:09.917Z,6.75
2023-03-06T03:05:26.136Z,6.20
2023-03-06T03:09:42.274Z,6.28
2023-03-06T03:13:58.494Z,7.05
2023-03-06T03:18:14.697Z,5.82
2023-03-06T03:22:31.095Z,5.87
2023-03-06T03:26:47.213Z,6.53
2023-03-06T03:31:07.551Z,5.90
2023-03-06T03:35:23.851Z,6.20
2023-03-06T03:39:39.984Z,6.32
2023-03-06T03:43:56.118Z,6.18
2023-03-06T03:48:12.449Z,6.37
2023-03-06T03:52:28.713Z,6.35
2023-03-06T03:56:45.329Z,6.25
2023-03-06T04:01:01.841Z,5.87
2023-03-06T04:05:18.115Z,6.10
2023-03-06T04:09:34.324Z,7.95
2023-03-06T04:13:50.539Z,6.45
2023-03-06T04:18:06.758Z,7.43
2023-03-06T04:22:22.869Z,6.28
2023-03-06T04:26:39.110Z,6.10
2023-03-06T04:30:55.321Z,5.75
2023-03-06T04:35:11.649Z,6.18
2023-03-06T04:39:27.908Z,6.28
2023-03-06T04:43:44.014Z,5.93
2023-03-06T04:48:00.169Z,5.75
2023-03-06T04:52:16.362Z,6.22
2023-03-06T04:56:34.511Z,6.00
2023-03-06T05:00:50.659Z,6.37
2023-03-06T05:05:07.214Z,5.80
2023-03-06T05:09:23.482Z,5.45
2023-03-06T05:13:39.653Z,5.95
2023-03-06T05:17:56.668Z,6.55
2023-03-06T05:22:12.807Z,5.97
2023-03-06T05:26:29.058Z,6.50
2023-03-06T05:30:45.464Z,6.47
2023-03-06T05:35:01.690Z,6.43
2023-03-06T05:39:18.021Z,6.60
2023-03-06T05:43:34.267Z,6.85
2023-03-06T05:47:50.481Z,6.62
2023-03-06T05:52:07.720Z,6.32
2023-03-06T05:56:23.989Z,6.55
2023-03-06T06:00:40.152Z,6.80
2023-03-06T06:04:56.356Z,6.55
2023-03-06T06:09:13.960Z,6.40
2023-03-06T06:13:30.119Z,7.15
2023-03-06T06:17:46.289Z,6.95
2023-03-06T06:22:03.962Z,7.22
2023-03-06T06:26:20.838Z,7.00
2023-03-06T06:30:37.485Z,7.00
2023-03-06T06:34:53.823Z,7.43
2023-03-06T06:39:11.959Z,7.20
2023-03-06T06:43:29.328Z,7.62
2023-03-06T06:47:46.363Z,7.22
2023-03-06T06:52:02.701Z,6.60
2023-03-06T06:56:19.003Z,7.70
2023-03-06T07:00:35.250Z,7.12
2023-03-06T07:05:03.193Z,7.55
2023-03-06T07:09:22.488Z,8.18
2023-03-06T07:13:39.088Z,6.97
2023-03-06T07:17:55.342Z,8.00
2023-03-06T07:22:11.483Z,7.72
2023-03-06T07:26:28.319Z,7.40
2023-03-06T07:30:44.634Z,8.32
2023-03-06T07:35:19.081Z,10.68
2023-03-06T07:39:35.922Z,7.70
2023-03-06T07:43:52.208Z,8.18
2023-03-06T07:48:08.354Z,7.37
2023-03-06T07:52:24.853Z,7.62
2023-03-06T07:56:41.037Z,7.57
2023-03-06T08:00:57.162Z,8.32
2023-03-06T08:05:15.419Z,8.55
2023-03-06T08:09:31.651Z,6.72
2023-03-06T08:13:49.092Z,8.38
2023-03-06T08:18:05.337Z,7.15
2023-03-06T08:22:21.433Z,7.87
2023-03-06T08:26:37.645Z,8.50
2023-03-06T08:30:54.076Z,7.95
2023-03-06T08:35:15.380Z,7.28
2023-03-06T08:39:31.813Z,8.95
2023-03-06T08:43:48.435Z,9.00
2023-03-06T08:48:04.644Z,8.52
2023-03-06T08:52:20.866Z,10.23
2023-03-06T08:56:37.052Z,9.98
2023-03-06T09:00:55.285Z,8.50
2023-03-06T09:05:11.696Z,7.35
2023-03-06T09:09:28.059Z,8.20
2023-03-06T09:13:44.478Z,7.90
2023-03-06T09:18:00.733Z,8.60
2023-03-06T09:22:16.931Z,8.40
2023-03-06T09:26:45.022Z,8.15
2023-03-06T09:31:07.130Z,8.30
2023-03-06T09:35:23.305Z,7.55
2023-03-06T09:39:39.467Z,8.27
2023-03-06T09:44:08.776Z,8.25
2023-03-06T09:48:37.593Z,9.07
2023-03-06T09:53:12.098Z,8.10
2023-03-06T09:57:31.867Z,9.68
2023-03-06T10:02:19.439Z,9.07
2023-03-06T10:06:47.921Z,9.63
2023-03-06T10:11:12.178Z,10.75
2023-03-06T10:15:32.772Z,10.18
2023-03-06T10:19:50.103Z,9.57
2023-03-06T10:24:25.528Z,10.63
2023-03-06T10:28:53.730Z,10.23
2023-03-06T10:33:33.530Z,10.43
2023-03-06T10:37:58.666Z,11.38
2023-03-06T10:42:17.016Z,11.07
2023-03-06T10:46:45.261Z,10.10
2023-03-06T10:51:24.978Z,10.63
2023-03-06T10:55:41.309Z,11.07
2023-03-06T11:00:08.248Z,11.98
2023-03-06T11:04:35.930Z,11.27
2023-03-06T11:08:52.040Z,10.30
2023-03-06T11:13:27.042Z,10.77
2023-03-06T11:17:52.824Z,11.40
2023-03-06T11:22:19.129Z,10.05
2023-03-06T11:27:26.212Z,10.15
2023-03-06T11:32:05.695Z,10.52
2023-03-06T11:36:37.434Z,10.50
2023-03-06T11:41:02.685Z,11.18
2023-03-06T11:45:46.063Z,10.65
2023-03-06T11:50:20.316Z,10.05
2023-03-06T11:54:38.594Z,10.70
2023-03-06T11:59:24.079Z,10.55
2023-03-06T12:04:24.719Z,8.98
2023-03-06T12:08:57.871Z,10.40
2023-03-06T12:13:27.928Z,9.13
2023-03-06T12:18:00.863Z,10.02
2023-03-06T12:22:32.477Z,9.13
2023-03-06T12:27:02.165Z,8.85
2023-03-06T12:32:08.798Z,8.52
2023-03-06T12:36:37.311Z,9.40
2023-03-06T12:41:19.110Z,9.18
2023-03-06T12:45:39.220Z,9.07
2023-03-06T12:50:13.966Z,8.98
2023-03-06T12:54:35.811Z,8.50
2023-03-06T12:58:53.225Z,9.18
2023-03-06T13:03:24.994Z,9.73
2023-03-06T13:07:41.115Z,9.18
2023-03-06T13:12:11.224Z,9.63
2023-03-06T13:16:33.292Z,8.45
2023-03-06T13:20:51.045Z,8.98
2023-03-06T13:25:18.424Z,8.48
2023-03-06T13:29:37.247Z,9.70
2023-03-06T13:33:59.750Z,9.07
2023-03-06T13:38:53.680Z,8.60
2023-03-06T13:43:10.225Z,8.13
2023-03-06T13:52:36.565Z,8.60
2023-03-06T13:57:02.499Z,8.35
2023-03-06T14:01:42.184Z,8.93
2023-03-06T14:05:59.210Z,8.30
2023-03-06T14:10:17.354Z,9.00
2023-03-06T14:14:59.941Z,8.85
2023-03-06T14:19:19.868Z,8.85
2023-03-06T14:23:42.607Z,9.23
2023-03-06T14:28:12.397Z,8.93
2023-03-06T14:32:30.485Z,9.70
2023-03-06T14:36:51.960Z,9.27
2023-03-06T14:41:11.733Z,9.38
2023-03-06T14:45:29.142Z,10.60
2023-03-06T14:49:45.360Z,9.32
2023-03-06T14:54:04.836Z,10.02
2023-03-06T14:58:47.053Z,8.88
2023-03-06T15:03:06.135Z,8.57
2023-03-06T15:07:30.509Z,9.25
2023-03-06T15:11:58.594Z,8.52
2023-03-06T15:16:14.847Z,8.77
2023-03-06T15:20:37.209Z,8.55
2023-03-06T15:24:53.925Z,8.80
2023-03-06T15:29:10.841Z,9.35
2023-03-06T15:33:27.488Z,9.55
2023-03-06T15:37:45.712Z,10.02
2023-03-06T15:42:07.569Z,9.55
2023-03-06T15:46:25.855Z,8.10
2023-03-06T15:50:42.020Z,8.77
2023-03-06T15:55:00.259Z,7.45
2023-03-06T15:59:23.740Z,7.82
2023-03-06T16:07:55.938Z,7.22
2023-03-06T16:12:19.747Z,7.78
2023-03-06T16:16:39.711Z,7.97
2023-03-06T16:20:56.075Z,7.80
2023-03-06T16:25:13.319Z,8.02
2023-03-06T16:29:30.468Z,7.97
2023-03-06T16:33:46.607Z,7.18
2023-03-06T16:38:02.841Z,8.07
2023-03-06T16:42:19.077Z,8.98
2023-03-06T16:46:37.401Z,8.18
2023-03-06T16:50:53.534Z,8.32
2023-03-06T16:55:12.100Z,7.90
2023-03-06T16:59:28.252Z,8.00
2023-03-06T17:03:45.301Z,10.45
2023-03-06T17:08:01.711Z,15.68
2023-03-06T17:12:17.955Z,9.57
2023-03-06T17:16:34.351Z,9.43
2023-03-06T17:20:52.250Z,19.25
2023-03-06T17:25:09.310Z,14.13
2023-03-06T17:29:27.636Z,9.50
2023-03-06T17:33:44.360Z,10.27
2023-03-06T17:38:00.623Z,11.48
2023-03-06T17:42:17.138Z,9.30
2023-03-06T17:46:34.858Z,9.60
2023-03-06T17:50:55.667Z,8.68
2023-03-06T17:55:11.939Z,9.63
2023-03-06T17:59:34.092Z,13.15
2023-03-06T18:03:51.277Z,10.05
2023-03-06T18:08:08.536Z,9.85
2023-03-06T18:12:24.754Z,9.18
2023-03-06T18:16:41.292Z,10.07
2023-03-06T18:20:57.780Z,11.23
2023-03-06T18:25:13.974Z,9.80
2023-03-06T18:29:30.256Z,10.32
2023-03-06T18:33:48.778Z,11.40
2023-03-06T18:38:07.005Z,11.68
2023-03-06T18:42:23.269Z,17.23
2023-03-06T18:46:39.667Z,13.40
2023-03-06T18:50:55.907Z,12.00
2023-03-06T18:55:12.415Z,51.17
2023-03-06T18:59:28.667Z,25.23
2023-03-06T19:03:44.988Z,18.17
2023-03-06T19:08:01.102Z,12.10
2023-03-06T19:12:17.626Z,11.48
2023-03-06T19:16:33.849Z,9.65
2023-03-06T19:20:50.335Z,9.43
2023-03-06T19:25:07.973Z,9.10
2023-03-06T19:29:24.091Z,9.52
2023-03-06T19:33:41.406Z,9.38
2023-03-06T19:37:57.501Z,9.35
2023-03-06T19:42:14.004Z,10.00
2023-03-06T19:46:31.985Z,9.48
2023-03-06T19:50:48.139Z,9.07
2023-03-06T19:55:04.421Z,10.20
2023-03-06T19:59:20.550Z,9.68
2023-03-06T20:03:36.811Z,8.05
2023-03-06T20:07:53.164Z,10.10
2023-03-06T20:12:09.353Z,9.68
2023-03-06T20:16:28.110Z,11.27
2023-03-06T20:20:44.354Z,10.65
2023-03-06T20:25:00.518Z,11.48
2023-03-06T20:29:16.932Z,12.10
2023-03-06T20:33:33.041Z,13.40
2023-03-06T20:37:49.185Z,12.00
2023-03-06T20:42:05.769Z,11.05
2023-03-06T20:46:23.213Z,11.35
2023-03-06T20:50:39.364Z,12.82
2023-03-06T20:54:55.504Z,13.10
2023-03-06T20:59:12.598Z,11.40
2023-03-06T21:03:29.392Z,10.60
2023-03-06T21:07:45.580Z,10.68
2023-03-06T21:12:01.798Z,10.15
2023-03-06T21:16:20.185Z,11.55
2023-03-06T21:20:39.385Z,10.70
2023-03-06T21:24:55.483Z,12.15
2023-03-06T21:29:11.716Z,11.27
2023-03-06T21:33:28.681Z,12.68
2023-03-06T21:37:45.677Z,12.10
2023-03-06T21:42:02.447Z,11.98
2023-03-06T21:46:18.690Z,12.48
2023-03-06T21:50:35.333Z,12.65
2023-03-06T21:54:51.618Z,11.52
2023-03-06T21:59:07.752Z,12.20
2023-03-06T22:03:24.099Z,12.60
2023-03-06T22:07:40.892Z,12.82
2023-03-06T22:11:57.538Z,13.65
2023-03-06T22:16:14.438Z,12.23
2023-03-06T22:20:30.747Z,12.70
2023-03-06T22:24:48.665Z,13.48
2023-03-06T22:29:04.901Z,13.02
2023-03-06T22:33:21.106Z,13.43
2023-03-06T22:37:37.394Z,13.20
2023-03-06T22:41:56.372Z,13.07
2023-03-06T22:46:15.308Z,13.25
2023-03-06T22:50:31.443Z,12.82
2023-03-06T22:54:47.621Z,14.10
2023-03-06T22:59:04.559Z,13.40
2023-03-06T23:03:20.837Z,13.38
2023-03-06T23:07:37.316Z,12.43
2023-03-06T23:11:53.466Z,14.93
2023-03-06T23:16:09.897Z,12.95
2023-03-06T23:20:26.045Z,14.40
2023-03-06T23:24:42.275Z,12.88
2023-03-06T23:28:59.049Z,13.38
2023-03-06T23:33:15.233Z,12.98
2023-03-06T23:37:31.420Z,14.40
2023-03-06T23:41:47.568Z,13.43
2023-03-06T23:46:04.181Z,12.90
2023-03-06T23:50:20.389Z,13.68
2023-03-06T23:54:36.595Z,13.20
2023-03-06T23:58:53.384Z,14.13
